sensor_id;sensor_type;location;lat;lon;timestamp;temperature;humidity
52867;DHT22;38739;53.324;6.862;2022-12-10T00:01:09;-1.50;99.90
52867;DHT22;38739;53.324;6.862;2022-12-10T00:03:35;-1.50;99.90
52867;DHT22;38739;53.324;6.862;2022-12-10T00:06:02;-1.50;99.90
52867;DHT22;38739;53.324;6.862;2022-12-10T00:08:28;-1.50;99.90
52867;DHT22;38739;53.324;6.862;2022-12-10T00:10:54;-1.50;99.90
52867;DHT22;38739;53.324;6.862;2022-12-10T00:13:20;-1.50;99.90
52867;DHT22;38739;53.324;6.862;2022-12-10T00:15:46;-1.50;99.90
52867;DHT22;38739;53.324;6.862;2022-12-10T00:18:17;-1.50;99.90
52867;DHT22;38739;53.324;6.862;2022-12-10T00:20:43;-1.60;99.90
52867;DHT22;38739;53.324;6.862;2022-12-10T00:23:09;-1.50;99.90
52867;DHT22;38739;53.324;6.862;2022-12-10T00:25:34;-1.50;99.90
52867;DHT22;38739;53.324;6.862;2022-12-10T00:28:00;-1.60;99.90
52867;DHT22;38739;53.324;6.862;2022-12-10T00:30:26;-1.50;99.90
52867;DHT22;38739;53.324;6.862;2022-12-10T00:32:51;-1.50;99.90
52867;DHT22;38739;53.324;6.862;2022-12-10T00:35:17;-1.50;99.90
52867;DHT22;38739;53.324;6.862;2022-12-10T00:37:43;-1.50;99.90
52867;DHT22;38739;53.324;6.862;2022-12-10T00:40:09;-1.50;99.90
52867;DHT22;38739;53.324;6.862;2022-12-10T00:42:36;-1.40;99.90
52867;DHT22;38739;53.324;6.862;2022-12-10T00:45:03;-1.40;99.90
52867;DHT22;38739;53.324;6.862;2022-12-10T00:47:29;-1.40;99.90
52867;DHT22;38739;53.324;6.862;2022-12-10T00:49:54;-1.30;99.90
52867;DHT22;38739;53.324;6.862;2022-12-10T00:52:20;-1.30;99.90
52867;DHT22;38739;53.324;6.862;2022-12-10T00:54:46;-1.30;99.90
52867;DHT22;38739;53.324;6.862;2022-12-10T00:57:11;-1.30;99.90
52867;DHT22;38739;53.324;6.862;2022-12-10T00:59:37;-1.30;99.90
52867;DHT22;38739;53.324;6.862;2022-12-10T01:02:03;-1.30;99.90
52867;DHT22;38739;53.324;6.862;2022-12-10T01:04:28;-1.30;99.90
52867;DHT22;38739;53.324;6.862;2022-12-10T01:06:54;-1.40;99.90
52867;DHT22;38739;53.324;6.862;2022-12-10T01:09:25;-1.40;99.90
52867;DHT22;38739;53.324;6.862;2022-12-10T01:11:52;-1.40;99.90
52867;DHT22;38739;53.324;6.862;2022-12-10T01:14:24;-1.40;99.90
52867;DHT22;38739;53.324;6.862;2022-12-10T01:16:54;-1.40;99.90
52867;DHT22;38739;53.324;6.862;2022-12-10T01:19:21;-1.50;99.90
52867;DHT22;38739;53.324;6.862;2022-12-10T01:21:50;-1.50;99.90
52867;DHT22;38739;53.324;6.862;2022-12-10T01:24:16;-1.50;99.90
52867;DHT22;38739;53.324;6.862;2022-12-10T01:26:42;-1.50;99.90
52867;DHT22;38739;53.324;6.862;2022-12-10T01:29:08;-1.60;99.90
52867;DHT22;38739;53.324;6.862;2022-12-10T01:31:35;-1.50;99.90
52867;DHT22;38739;53.324;6.862;2022-12-10T01:34:02;-1.60;99.90
52867;DHT22;38739;53.324;6.862;2022-12-10T01:36:34;-1.60;99.90
52867;DHT22;38739;53.324;6.862;2022-12-10T01:39:04;-1.60;99.90
52867;DHT22;38739;53.324;6.862;2022-12-10T01:41:54;-1.60;99.90
52867;DHT22;38739;53.324;6.862;2022-12-10T01:46:47;-1.60;99.90
52867;DHT22;38739;53.324;6.862;2022-12-10T01:49:18;-1.70;99.90
52867;DHT22;38739;53.324;6.862;2022-12-10T01:51:46;-1.70;99.90
52867;DHT22;38739;53.324;6.862;2022-12-10T01:54:16;-1.70;99.90
52867;DHT22;38739;53.324;6.862;2022-12-10T01:56:45;-1.70;99.90
52867;DHT22;38739;53.324;6.862;2022-12-10T01:59:11;-1.70;99.90
52867;DHT22;38739;53.324;6.862;2022-12-10T02:01:52;-1.70;99.90
52867;DHT22;38739;53.324;6.862;2022-12-10T02:07:06;-1.80;99.90
52867;DHT22;38739;53.324;6.862;2022-12-10T02:12:51;-1.80;99.90
52867;DHT22;38739;53.324;6.862;2022-12-10T02:15:21;-1.80;99.90
52867;DHT22;38739;53.324;6.862;2022-12-10T02:18:10;-1.80;99.90
52867;DHT22;38739;53.324;6.862;2022-12-10T02:20:44;-1.80;99.90
52867;DHT22;38739;53.324;6.862;2022-12-10T02:23:24;-1.80;99.90
52867;DHT22;38739;53.324;6.862;2022-12-10T02:29:02;-1.90;99.90
52867;DHT22;38739;53.324;6.862;2022-12-10T02:31:30;-1.80;99.90
52867;DHT22;38739;53.324;6.862;2022-12-10T02:33:58;-1.80;99.90
52867;DHT22;38739;53.324;6.862;2022-12-10T02:36:28;-1.80;99.90
52867;DHT22;38739;53.324;6.862;2022-12-10T02:38:55;-1.90;99.90
52867;DHT22;38739;53.324;6.862;2022-12-10T02:41:34;-1.90;99.90
52867;DHT22;38739;53.324;6.862;2022-12-10T02:44:03;-1.90;99.90
52867;DHT22;38739;53.324;6.862;2022-12-10T02:46:32;-1.80;99.90
52867;DHT22;38739;53.324;6.862;2022-12-10T02:49:00;-1.80;99.90
52867;DHT22;38739;53.324;6.862;2022-12-10T02:51:27;-1.80;99.90
52867;DHT22;38739;53.324;6.862;2022-12-10T02:54:04;-1.80;99.90
52867;DHT22;38739;53.324;6.862;2022-12-10T02:56:44;-1.90;99.90
52867;DHT22;38739;53.324;6.862;2022-12-10T02:59:16;-1.80;99.90
52867;DHT22;38739;53.324;6.862;2022-12-10T03:02:10;-1.80;99.90
52867;DHT22;38739;53.324;6.862;2022-12-10T03:04:42;-1.90;99.90
52867;DHT22;38739;53.324;6.862;2022-12-10T03:07:35;-1.90;99.90
52867;DHT22;38739;53.324;6.862;2022-12-10T03:10:09;-1.90;99.90
52867;DHT22;38739;53.324;6.862;2022-12-10T03:12:46;-1.90;99.90
52867;DHT22;38739;53.324;6.862;2022-12-10T03:15:14;-1.90;99.90
52867;DHT22;38739;53.324;6.862;2022-12-10T03:17:42;-2.00;99.90
52867;DHT22;38739;53.324;6.862;2022-12-10T03:20:12;-2.00;99.90
52867;DHT22;38739;53.324;6.862;2022-12-10T03:22:42;-2.00;99.90
52867;DHT22;38739;53.324;6.862;2022-12-10T03:25:10;-2.00;99.90
52867;DHT22;38739;53.324;6.862;2022-12-10T03:27:39;-2.00;99.90
52867;DHT22;38739;53.324;6.862;2022-12-10T03:30:07;-2.00;99.90
52867;DHT22;38739;53.324;6.862;2022-12-10T03:32:33;-2.00;99.90
52867;DHT22;38739;53.324;6.862;2022-12-10T03:35:00;-2.10;99.90
52867;DHT22;38739;53.324;6.862;2022-12-10T03:37:27;-2.10;99.90
52867;DHT22;38739;53.324;6.862;2022-12-10T03:39:55;-2.10;99.90
52867;DHT22;38739;53.324;6.862;2022-12-10T03:42:22;-2.10;99.90
52867;DHT22;38739;53.324;6.862;2022-12-10T03:44:50;-2.10;99.90
52867;DHT22;38739;53.324;6.862;2022-12-10T03:47:17;-2.10;99.90
52867;DHT22;38739;53.324;6.862;2022-12-10T03:49:43;-2.10;99.90
52867;DHT22;38739;53.324;6.862;2022-12-10T03:52:09;-2.10;99.90
52867;DHT22;38739;53.324;6.862;2022-12-10T03:54:35;-2.10;99.90
52867;DHT22;38739;53.324;6.862;2022-12-10T03:57:01;-2.10;99.90
52867;DHT22;38739;53.324;6.862;2022-12-10T03:59:27;-2.10;99.90
52867;DHT22;38739;53.324;6.862;2022-12-10T04:01:53;-2.20;99.90
52867;DHT22;38739;53.324;6.862;2022-12-10T04:04:18;-2.10;99.90
52867;DHT22;38739;53.324;6.862;2022-12-10T04:06:44;-2.10;99.90
52867;DHT22;38739;53.324;6.862;2022-12-10T04:09:11;-2.20;99.90
52867;DHT22;38739;53.324;6.862;2022-12-10T04:11:37;-2.20;99.90
52867;DHT22;38739;53.324;6.862;2022-12-10T04:14:03;-2.20;99.90
52867;DHT22;38739;53.324;6.862;2022-12-10T04:16:47;-2.20;99.90
52867;DHT22;38739;53.324;6.862;2022-12-10T04:19:15;-2.20;99.90
52867;DHT22;38739;53.324;6.862;2022-12-10T04:21:43;-2.20;99.90
52867;DHT22;38739;53.324;6.862;2022-12-10T04:24:29;-2.20;99.90
52867;DHT22;38739;53.324;6.862;2022-12-10T04:29:49;-2.20;99.90
52867;DHT22;38739;53.324;6.862;2022-12-10T04:32:15;-2.20;99.90
52867;DHT22;38739;53.324;6.862;2022-12-10T04:34:41;-2.20;99.90
52867;DHT22;38739;53.324;6.862;2022-12-10T04:37:07;-2.30;99.90
52867;DHT22;38739;53.324;6.862;2022-12-10T04:39:33;-2.30;99.90
52867;DHT22;38739;53.324;6.862;2022-12-10T04:41:59;-2.30;99.90
52867;DHT22;38739;53.324;6.862;2022-12-10T04:44:25;-2.30;99.90
52867;DHT22;38739;53.324;6.862;2022-12-10T04:46:51;-2.30;99.90
52867;DHT22;38739;53.324;6.862;2022-12-10T04:49:17;-2.30;99.90
52867;DHT22;38739;53.324;6.862;2022-12-10T04:51:43;-2.30;99.90
52867;DHT22;38739;53.324;6.862;2022-12-10T04:54:09;-2.30;99.90
52867;DHT22;38739;53.324;6.862;2022-12-10T04:56:35;-2.30;99.90
52867;DHT22;38739;53.324;6.862;2022-12-10T04:59:02;-2.20;99.90
52867;DHT22;38739;53.324;6.862;2022-12-10T05:01:28;-2.20;99.90
52867;DHT22;38739;53.324;6.862;2022-12-10T05:03:57;-2.30;99.90
52867;DHT22;38739;53.324;6.862;2022-12-10T05:06:23;-2.20;99.90
52867;DHT22;38739;53.324;6.862;2022-12-10T05:08:49;-2.20;99.90
52867;DHT22;38739;53.324;6.862;2022-12-10T05:11:19;-2.30;99.90
52867;DHT22;38739;53.324;6.862;2022-12-10T05:13:46;-2.30;99.90
52867;DHT22;38739;53.324;6.862;2022-12-10T05:16:17;-2.30;99.90
52867;DHT22;38739;53.324;6.862;2022-12-10T05:18:43;-2.30;99.90
52867;DHT22;38739;53.324;6.862;2022-12-10T05:21:14;-2.30;99.90
52867;DHT22;38739;53.324;6.862;2022-12-10T05:23:43;-2.30;99.90
52867;DHT22;38739;53.324;6.862;2022-12-10T05:26:15;-2.30;99.90
52867;DHT22;38739;53.324;6.862;2022-12-10T05:28:50;-2.30;99.90
52867;DHT22;38739;53.324;6.862;2022-12-10T05:31:28;-2.30;99.90
52867;DHT22;38739;53.324;6.862;2022-12-10T05:33:55;-2.30;99.90
52867;DHT22;38739;53.324;6.862;2022-12-10T05:36:24;-2.30;99.90
52867;DHT22;38739;53.324;6.862;2022-12-10T05:38:50;-2.30;99.90
52867;DHT22;38739;53.324;6.862;2022-12-10T05:41:22;-2.40;99.90
52867;DHT22;38739;53.324;6.862;2022-12-10T05:43:48;-2.40;99.90
52867;DHT22;38739;53.324;6.862;2022-12-10T05:46:33;-2.40;99.90
52867;DHT22;38739;53.324;6.862;2022-12-10T05:49:00;-2.40;99.90
52867;DHT22;38739;53.324;6.862;2022-12-10T05:51:29;-2.40;99.90
52867;DHT22;38739;53.324;6.862;2022-12-10T05:53:56;-2.40;99.90
52867;DHT22;38739;53.324;6.862;2022-12-10T05:56:24;-2.40;99.90
52867;DHT22;38739;53.324;6.862;2022-12-10T05:58:54;-2.40;99.90
52867;DHT22;38739;53.324;6.862;2022-12-10T06:01:22;-2.40;99.90
52867;DHT22;38739;53.324;6.862;2022-12-10T06:03:49;-2.30;99.90
52867;DHT22;38739;53.324;6.862;2022-12-10T06:06:27;-2.40;99.90
52867;DHT22;38739;53.324;6.862;2022-12-10T06:08:54;-2.30;99.90
52867;DHT22;38739;53.324;6.862;2022-12-10T06:11:20;-2.30;99.90
52867;DHT22;38739;53.324;6.862;2022-12-10T06:13:46;-2.30;99.90
52867;DHT22;38739;53.324;6.862;2022-12-10T06:16:12;-2.20;99.90
52867;DHT22;38739;53.324;6.862;2022-12-10T06:18:38;-2.20;99.90
52867;DHT22;38739;53.324;6.862;2022-12-10T06:21:10;-2.20;99.90
52867;DHT22;38739;53.324;6.862;2022-12-10T06:23:37;-2.10;99.90
52867;DHT22;38739;53.324;6.862;2022-12-10T06:26:14;-2.10;99.90
52867;DHT22;38739;53.324;6.862;2022-12-10T06:28:41;-2.10;99.90
52867;DHT22;38739;53.324;6.862;2022-12-10T06:31:06;-2.00;99.90
52867;DHT22;38739;53.324;6.862;2022-12-10T06:33:33;-2.00;99.90
52867;DHT22;38739;53.324;6.862;2022-12-10T06:35:59;-2.10;99.90
52867;DHT22;38739;53.324;6.862;2022-12-10T06:38:25;-2.00;99.90
52867;DHT22;38739;53.324;6.862;2022-12-10T06:40:51;-2.00;99.90
52867;DHT22;38739;53.324;6.862;2022-12-10T06:43:16;-2.00;99.90
52867;DHT22;38739;53.324;6.862;2022-12-10T06:45:42;-2.00;99.90
52867;DHT22;38739;53.324;6.862;2022-12-10T06:48:09;-2.00;99.90
52867;DHT22;38739;53.324;6.862;2022-12-10T06:50:35;-2.00;99.90
52867;DHT22;38739;53.324;6.862;2022-12-10T06:53:01;-1.90;99.90
52867;DHT22;38739;53.324;6.862;2022-12-10T06:55:27;-2.00;99.90
52867;DHT22;38739;53.324;6.862;2022-12-10T06:57:54;-1.90;99.90
52867;DHT22;38739;53.324;6.862;2022-12-10T07:00:20;-2.00;99.90
52867;DHT22;38739;53.324;6.862;2022-12-10T07:02:46;-1.90;99.90
52867;DHT22;38739;53.324;6.862;2022-12-10T07:05:12;-1.90;99.90
52867;DHT22;38739;53.324;6.862;2022-12-10T07:07:38;-1.90;99.90
52867;DHT22;38739;53.324;6.862;2022-12-10T07:10:04;-1.90;99.90
52867;DHT22;38739;53.324;6.862;2022-12-10T07:12:30;-1.80;99.90
52867;DHT22;38739;53.324;6.862;2022-12-10T07:14:56;-1.80;99.90
52867;DHT22;38739;53.324;6.862;2022-12-10T07:17:21;-1.80;99.90
52867;DHT22;38739;53.324;6.862;2022-12-10T07:19:47;-1.80;99.90
52867;DHT22;38739;53.324;6.862;2022-12-10T07:22:13;-1.80;99.90
52867;DHT22;38739;53.324;6.862;2022-12-10T07:24:39;-1.80;99.90
52867;DHT22;38739;53.324;6.862;2022-12-10T07:27:06;-1.80;99.90
52867;DHT22;38739;53.324;6.862;2022-12-10T07:29:31;-1.70;99.90
52867;DHT22;38739;53.324;6.862;2022-12-10T07:31:57;-1.70;99.90
52867;DHT22;38739;53.324;6.862;2022-12-10T07:34:23;-1.70;99.90
52867;DHT22;38739;53.324;6.862;2022-12-10T07:36:48;-1.70;99.90
52867;DHT22;38739;53.324;6.862;2022-12-10T07:39:14;-1.70;99.90
52867;DHT22;38739;53.324;6.862;2022-12-10T07:41:52;-1.70;99.90
52867;DHT22;38739;53.324;6.862;2022-12-10T07:44:23;-1.70;99.90
52867;DHT22;38739;53.324;6.862;2022-12-10T07:46:51;-1.70;99.90
52867;DHT22;38739;53.324;6.862;2022-12-10T07:49:17;-1.70;99.90
52867;DHT22;38739;53.324;6.862;2022-12-10T07:51:50;-1.70;99.90
52867;DHT22;38739;53.324;6.862;2022-12-10T07:54:17;-1.70;99.90
52867;DHT22;38739;53.324;6.862;2022-12-10T07:56:42;-1.70;99.90
52867;DHT22;38739;53.324;6.862;2022-12-10T07:59:08;-1.70;99.90
52867;DHT22;38739;53.324;6.862;2022-12-10T08:01:34;-1.70;99.90
52867;DHT22;38739;53.324;6.862;2022-12-10T08:04:00;-1.70;99.90
52867;DHT22;38739;53.324;6.862;2022-12-10T08:06:27;-1.70;99.90
52867;DHT22;38739;53.324;6.862;2022-12-10T08:08:53;-1.70;99.90
52867;DHT22;38739;53.324;6.862;2022-12-10T08:11:21;-1.70;99.90
52867;DHT22;38739;53.324;6.862;2022-12-10T08:13:47;-1.70;99.90
52867;DHT22;38739;53.324;6.862;2022-12-10T08:16:16;-1.70;99.90
52867;DHT22;38739;53.324;6.862;2022-12-10T08:18:43;-1.60;99.90
52867;DHT22;38739;53.324;6.862;2022-12-10T08:21:12;-1.60;99.90
52867;DHT22;38739;53.324;6.862;2022-12-10T08:23:39;-1.60;99.90
52867;DHT22;38739;53.324;6.862;2022-12-10T08:26:06;-1.60;99.90
52867;DHT22;38739;53.324;6.862;2022-12-10T08:28:32;-1.60;99.90
52867;DHT22;38739;53.324;6.862;2022-12-10T08:30:58;-1.60;99.90
52867;DHT22;38739;53.324;6.862;2022-12-10T08:33:24;-1.60;99.90
52867;DHT22;38739;53.324;6.862;2022-12-10T08:35:50;-1.60;99.90
52867;DHT22;38739;53.324;6.862;2022-12-10T08:38:16;-1.50;99.90
52867;DHT22;38739;53.324;6.862;2022-12-10T08:40:42;-1.50;99.90
52867;DHT22;38739;53.324;6.862;2022-12-10T08:43:08;-1.50;99.90
52867;DHT22;38739;53.324;6.862;2022-12-10T08:45:34;-1.50;99.90
52867;DHT22;38739;53.324;6.862;2022-12-10T08:48:01;-1.50;99.90
52867;DHT22;38739;53.324;6.862;2022-12-10T08:50:28;-1.40;99.90
52867;DHT22;38739;53.324;6.862;2022-12-10T08:52:53;-1.40;99.90
52867;DHT22;38739;53.324;6.862;2022-12-10T08:55:19;-1.40;99.90
52867;DHT22;38739;53.324;6.862;2022-12-10T08:57:45;-1.30;99.90
52867;DHT22;38739;53.324;6.862;2022-12-10T09:00:11;-1.20;99.90
52867;DHT22;38739;53.324;6.862;2022-12-10T09:02:39;-1.20;99.90
52867;DHT22;38739;53.324;6.862;2022-12-10T09:05:05;-1.20;99.90
52867;DHT22;38739;53.324;6.862;2022-12-10T09:07:31;-1.10;99.90
52867;DHT22;38739;53.324;6.862;2022-12-10T09:09:56;-1.10;99.90
52867;DHT22;38739;53.324;6.862;2022-12-10T09:12:23;-1.10;99.90
52867;DHT22;38739;53.324;6.862;2022-12-10T09:14:48;-1.10;99.90
52867;DHT22;38739;53.324;6.862;2022-12-10T09:17:14;-1.10;99.90
52867;DHT22;38739;53.324;6.862;2022-12-10T09:19:40;-1.10;99.90
52867;DHT22;38739;53.324;6.862;2022-12-10T09:22:05;-1.00;99.90
52867;DHT22;38739;53.324;6.862;2022-12-10T09:24:31;-1.00;99.90
52867;DHT22;38739;53.324;6.862;2022-12-10T09:26:57;-1.00;99.90
52867;DHT22;38739;53.324;6.862;2022-12-10T09:29:22;-1.10;99.90
52867;DHT22;38739;53.324;6.862;2022-12-10T09:31:52;-1.10;99.90
52867;DHT22;38739;53.324;6.862;2022-12-10T09:34:18;-1.10;99.90
52867;DHT22;38739;53.324;6.862;2022-12-10T09:36:44;-1.10;99.90
52867;DHT22;38739;53.324;6.862;2022-12-10T09:39:11;-1.10;99.90
52867;DHT22;38739;53.324;6.862;2022-12-10T09:47:05;-1.10;99.90
52867;DHT22;38739;53.324;6.862;2022-12-10T09:52:20;-1.10;99.90
52867;DHT22;38739;53.324;6.862;2022-12-10T09:55:02;-1.10;99.90
52867;DHT22;38739;53.324;6.862;2022-12-10T09:57:30;-1.00;99.90
52867;DHT22;38739;53.324;6.862;2022-12-10T10:00:00;-1.00;99.90
52867;DHT22;38739;53.324;6.862;2022-12-10T10:02:29;-1.00;99.90
52867;DHT22;38739;53.324;6.862;2022-12-10T10:07:41;-1.10;99.90
52867;DHT22;38739;53.324;6.862;2022-12-10T10:10:30;-1.10;99.90
52867;DHT22;38739;53.324;6.862;2022-12-10T10:15:40;-1.10;99.90
52867;DHT22;38739;53.324;6.862;2022-12-10T10:18:30;-1.00;99.90
52867;DHT22;38739;53.324;6.862;2022-12-10T10:21:00;-1.00;99.90
52867;DHT22;38739;53.324;6.862;2022-12-10T10:23:26;-1.00;99.90
52867;DHT22;38739;53.324;6.862;2022-12-10T10:25:51;-0.90;99.90
52867;DHT22;38739;53.324;6.862;2022-12-10T10:28:20;-1.00;99.90
52867;DHT22;38739;53.324;6.862;2022-12-10T10:30:46;-0.90;99.90
52867;DHT22;38739;53.324;6.862;2022-12-10T10:33:14;-0.90;99.90
52867;DHT22;38739;53.324;6.862;2022-12-10T10:35:54;-0.80;99.90
52867;DHT22;38739;53.324;6.862;2022-12-10T10:38:22;-0.80;99.90
52867;DHT22;38739;53.324;6.862;2022-12-10T10:40:55;-0.80;99.90
52867;DHT22;38739;53.324;6.862;2022-12-10T10:43:32;-0.80;99.90
52867;DHT22;38739;53.324;6.862;2022-12-10T10:46:22;-0.80;99.90
52867;DHT22;38739;53.324;6.862;2022-12-10T10:48:48;-0.70;99.90
52867;DHT22;38739;53.324;6.862;2022-12-10T10:56:28;-0.70;99.90
52867;DHT22;38739;53.324;6.862;2022-12-10T10:59:49;-0.70;99.90
52867;DHT22;38739;53.324;6.862;2022-12-10T11:01:55;-0.70;99.90
52867;DHT22;38739;53.324;6.862;2022-12-10T11:04:27;-0.70;99.90
52867;DHT22;38739;53.324;6.862;2022-12-10T11:06:54;-0.70;99.90
52867;DHT22;38739;53.324;6.862;2022-12-10T11:09:26;-0.70;99.90
52867;DHT22;38739;53.324;6.862;2022-12-10T11:12:20;-0.70;99.90
52867;DHT22;38739;53.324;6.862;2022-12-10T11:14:44;-0.70;99.90
52867;DHT22;38739;53.324;6.862;2022-12-10T11:17:17;-0.70;99.90
52867;DHT22;38739;53.324;6.862;2022-12-10T11:22:52;-0.70;99.90
52867;DHT22;38739;53.324;6.862;2022-12-10T11:25:23;-0.70;99.90
52867;DHT22;38739;53.324;6.862;2022-12-10T11:28:02;-0.70;99.90
52867;DHT22;38739;53.324;6.862;2022-12-10T11:30:36;-0.60;99.90
52867;DHT22;38739;53.324;6.862;2022-12-10T11:33:27;-0.70;99.90
52867;DHT22;38739;53.324;6.862;2022-12-10T11:36:11;-0.60;99.90
52867;DHT22;38739;53.324;6.862;2022-12-10T11:38:50;-0.50;99.90
52867;DHT22;38739;53.324;6.862;2022-12-10T11:41:29;-0.50;99.90
52867;DHT22;38739;53.324;6.862;2022-12-10T11:44:28;-0.50;99.90
52867;DHT22;38739;53.324;6.862;2022-12-10T11:47:38;-0.50;99.90
52867;DHT22;38739;53.324;6.862;2022-12-10T11:50:28;-0.40;99.90
52867;DHT22;38739;53.324;6.862;2022-12-10T11:58:48;-0.40;99.90
52867;DHT22;38739;53.324;6.862;2022-12-10T12:01:32;-0.40;99.90
52867;DHT22;38739;53.324;6.862;2022-12-10T12:07:09;-0.40;99.90
52867;DHT22;38739;53.324;6.862;2022-12-10T12:10:09;-0.40;99.90
52867;DHT22;38739;53.324;6.862;2022-12-10T12:15:34;-0.40;99.90
52867;DHT22;38739;53.324;6.862;2022-12-10T12:18:30;-0.40;99.90
52867;DHT22;38739;53.324;6.862;2022-12-10T12:21:00;-0.40;99.90
52867;DHT22;38739;53.324;6.862;2022-12-10T12:35:03;-0.40;99.90
52867;DHT22;38739;53.324;6.862;2022-12-10T12:37:41;-0.40;99.90
52867;DHT22;38739;53.324;6.862;2022-12-10T12:40:43;-0.40;99.90
52867;DHT22;38739;53.324;6.862;2022-12-10T12:43:16;-0.40;99.90
52867;DHT22;38739;53.324;6.862;2022-12-10T12:45:53;-0.40;99.90
52867;DHT22;38739;53.324;6.862;2022-12-10T12:48:38;-0.40;99.90
52867;DHT22;38739;53.324;6.862;2022-12-10T12:53:52;-0.30;99.90
52867;DHT22;38739;53.324;6.862;2022-12-10T13:05:28;-0.30;99.90
52867;DHT22;38739;53.324;6.862;2022-12-10T13:10:52;-0.30;99.90
52867;DHT22;38739;53.324;6.862;2022-12-10T13:22:10;-0.40;99.90
52867;DHT22;38739;53.324;6.862;2022-12-10T13:46:34;-0.40;99.90
52867;DHT22;38739;53.324;6.862;2022-12-10T13:49:18;-0.50;99.90
52867;DHT22;38739;53.324;6.862;2022-12-10T13:52:02;-0.50;99.90
52867;DHT22;38739;53.324;6.862;2022-12-10T14:00:13;-0.40;99.90
52867;DHT22;38739;53.324;6.862;2022-12-10T14:03:06;-0.40;99.90
52867;DHT22;38739;53.324;6.862;2022-12-10T14:08:37;-0.40;99.90
52867;DHT22;38739;53.324;6.862;2022-12-10T14:11:06;-0.40;99.90
52867;DHT22;38739;53.324;6.862;2022-12-10T14:13:47;-0.50;99.90
52867;DHT22;38739;53.324;6.862;2022-12-10T14:16:15;-0.50;99.90
52867;DHT22;38739;53.324;6.862;2022-12-10T14:18:54;-0.50;99.90
52867;DHT22;38739;53.324;6.862;2022-12-10T14:21:21;-0.50;99.90
52867;DHT22;38739;53.324;6.862;2022-12-10T14:23:48;-0.50;99.90
52867;DHT22;38739;53.324;6.862;2022-12-10T14:26:21;-0.50;99.90
52867;DHT22;38739;53.324;6.862;2022-12-10T14:28:56;-0.50;99.90
52867;DHT22;38739;53.324;6.862;2022-12-10T14:31:28;-0.50;99.90
52867;DHT22;38739;53.324;6.862;2022-12-10T14:33:59;-0.50;99.90
52867;DHT22;38739;53.324;6.862;2022-12-10T14:36:37;-0.50;99.90
52867;DHT22;38739;53.324;6.862;2022-12-10T14:39:13;-0.50;99.90
52867;DHT22;38739;53.324;6.862;2022-12-10T14:41:39;-0.50;99.90
52867;DHT22;38739;53.324;6.862;2022-12-10T14:44:05;-0.50;99.90
52867;DHT22;38739;53.324;6.862;2022-12-10T14:46:32;-0.60;99.90
52867;DHT22;38739;53.324;6.862;2022-12-10T14:48:58;-0.60;99.90
52867;DHT22;38739;53.324;6.862;2022-12-10T14:51:26;-0.60;99.90
52867;DHT22;38739;53.324;6.862;2022-12-10T14:53:53;-0.60;99.90
52867;DHT22;38739;53.324;6.862;2022-12-10T14:58:56;-0.60;99.90
52867;DHT22;38739;53.324;6.862;2022-12-10T15:01:35;-0.60;99.90
52867;DHT22;38739;53.324;6.862;2022-12-10T15:04:03;-0.70;99.90
52867;DHT22;38739;53.324;6.862;2022-12-10T15:06:34;-0.70;99.90
52867;DHT22;38739;53.324;6.862;2022-12-10T15:09:00;-0.70;99.90
52867;DHT22;38739;53.324;6.862;2022-12-10T15:11:27;-0.70;99.90
52867;DHT22;38739;53.324;6.862;2022-12-10T15:13:57;-0.70;99.90
52867;DHT22;38739;53.324;6.862;2022-12-10T15:19:20;-0.70;99.90
52867;DHT22;38739;53.324;6.862;2022-12-10T15:21:46;-0.70;99.90
52867;DHT22;38739;53.324;6.862;2022-12-10T15:24:21;-0.70;99.90
52867;DHT22;38739;53.324;6.862;2022-12-10T15:26:51;-0.60;99.90
52867;DHT22;38739;53.324;6.862;2022-12-10T15:32:16;-0.60;99.90
52867;DHT22;38739;53.324;6.862;2022-12-10T15:34:45;-0.60;99.90
52867;DHT22;38739;53.324;6.862;2022-12-10T15:37:27;-0.60;99.90
52867;DHT22;38739;53.324;6.862;2022-12-10T15:39:58;-0.60;99.90
52867;DHT22;38739;53.324;6.862;2022-12-10T15:42:43;-0.60;99.90
52867;DHT22;38739;53.324;6.862;2022-12-10T15:45:38;-0.60;99.90
52867;DHT22;38739;53.324;6.862;2022-12-10T15:48:08;-0.60;99.90
52867;DHT22;38739;53.324;6.862;2022-12-10T15:50:34;-0.60;99.90
52867;DHT22;38739;53.324;6.862;2022-12-10T15:53:00;-0.60;99.90
52867;DHT22;38739;53.324;6.862;2022-12-10T15:55:26;-0.60;99.90
52867;DHT22;38739;53.324;6.862;2022-12-10T15:57:51;-0.60;99.90
52867;DHT22;38739;53.324;6.862;2022-12-10T16:03:00;-0.60;99.90
52867;DHT22;38739;53.324;6.862;2022-12-10T16:05:33;-0.60;99.90
52867;DHT22;38739;53.324;6.862;2022-12-10T16:08:24;-0.60;99.90
52867;DHT22;38739;53.324;6.862;2022-12-10T16:10:52;-0.60;99.90
52867;DHT22;38739;53.324;6.862;2022-12-10T16:13:32;-0.60;99.90
52867;DHT22;38739;53.324;6.862;2022-12-10T16:16:06;-0.60;99.90
52867;DHT22;38739;53.324;6.862;2022-12-10T16:18:32;-0.60;99.90
52867;DHT22;38739;53.324;6.862;2022-12-10T16:20:58;-0.70;99.90
52867;DHT22;38739;53.324;6.862;2022-12-10T16:23:23;-0.60;99.90
52867;DHT22;38739;53.324;6.862;2022-12-10T16:25:49;-0.60;99.90
52867;DHT22;38739;53.324;6.862;2022-12-10T16:28:20;-0.60;99.90
52867;DHT22;38739;53.324;6.862;2022-12-10T16:30:56;-0.70;99.90
52867;DHT22;38739;53.324;6.862;2022-12-10T16:33:24;-0.60;99.90
52867;DHT22;38739;53.324;6.862;2022-12-10T16:35:51;-0.60;99.90
52867;DHT22;38739;53.324;6.862;2022-12-10T16:38:18;-0.60;99.90
52867;DHT22;38739;53.324;6.862;2022-12-10T16:40:45;-0.60;99.90
52867;DHT22;38739;53.324;6.862;2022-12-10T16:43:15;-0.60;99.90
52867;DHT22;38739;53.324;6.862;2022-12-10T16:45:41;-0.60;99.90
52867;DHT22;38739;53.324;6.862;2022-12-10T16:48:08;-0.60;99.90
52867;DHT22;38739;53.324;6.862;2022-12-10T16:50:34;-0.60;99.90
52867;DHT22;38739;53.324;6.862;2022-12-10T16:53:06;-0.60;99.90
52867;DHT22;38739;53.324;6.862;2022-12-10T16:55:36;-0.60;99.90
52867;DHT22;38739;53.324;6.862;2022-12-10T16:58:02;-0.60;99.90
52867;DHT22;38739;53.324;6.862;2022-12-10T17:00:28;-0.60;99.90
52867;DHT22;38739;53.324;6.862;2022-12-10T17:02:53;-0.60;99.90
52867;DHT22;38739;53.324;6.862;2022-12-10T17:05:28;-0.60;99.90
52867;DHT22;38739;53.324;6.862;2022-12-10T17:07:54;-0.60;99.90
52867;DHT22;38739;53.324;6.862;2022-12-10T17:10:20;-0.60;99.90
52867;DHT22;38739;53.324;6.862;2022-12-10T17:13:07;-0.60;99.90
52867;DHT22;38739;53.324;6.862;2022-12-10T17:15:33;-0.70;99.90
52867;DHT22;38739;53.324;6.862;2022-12-10T17:17:59;-0.70;99.90
52867;DHT22;38739;53.324;6.862;2022-12-10T17:20:27;-0.70;99.90
52867;DHT22;38739;53.324;6.862;2022-12-10T17:22:54;-0.70;99.90
52867;DHT22;38739;53.324;6.862;2022-12-10T17:25:20;-0.70;99.90
52867;DHT22;38739;53.324;6.862;2022-12-10T17:27:46;-0.70;99.90
52867;DHT22;38739;53.324;6.862;2022-12-10T17:30:13;-0.70;99.90
52867;DHT22;38739;53.324;6.862;2022-12-10T17:32:40;-0.70;99.90
52867;DHT22;38739;53.324;6.862;2022-12-10T17:35:06;-0.70;99.90
52867;DHT22;38739;53.324;6.862;2022-12-10T17:37:34;-0.70;99.90
52867;DHT22;38739;53.324;6.862;2022-12-10T17:40:23;-0.70;99.90
52867;DHT22;38739;53.324;6.862;2022-12-10T17:42:48;-0.70;99.90
52867;DHT22;38739;53.324;6.862;2022-12-10T17:45:16;-0.70;99.90
52867;DHT22;38739;53.324;6.862;2022-12-10T17:47:43;-0.70;99.90
52867;DHT22;38739;53.324;6.862;2022-12-10T17:50:17;-0.70;99.90
52867;DHT22;38739;53.324;6.862;2022-12-10T17:52:45;-0.70;99.90